Time;durP1;ratioP1;P1;durP2;ratioP2;P2;SDS_P1;SDS_P2;PMS_P1;PMS_P2;Temp;Humidity;BMP_temperature;BMP_pressure;BME280_temperature;BME280_humidity;BME280_pressure;Samples;Min_cycle;Max_cycle;Signal;HPM_P1;HPM_P2
2021/06/18 00:01:59;;;;;;;12.98;9.98;;;21.50;99.90;;;;;;6195489;28;20126;-79
2021/06/18 00:05:00;;;;;;;11.43;10.32;;;;;;;;;;6228520;28;20507;-80
2021/06/18 00:08:01;;;;;;;13.40;10.15;;;;;;;;;;6228131;28;20041;-81
2021/06/18 00:11:02;;;;;;;11.48;9.88;;;;;;;;;;6228149;28;20469;-80
2021/06/18 00:14:05;;;;;;;13.15;9.35;;;;;;;;;;6227377;28;20137;-80
2021/06/18 00:17:06;;;;;;;10.85;9.65;;;;;;;;;;6227863;28;20540;-80
2021/06/18 00:20:08;;;;;;;11.25;9.70;;;21.30;99.90;;;;;;6227840;28;20026;-79
2021/06/18 00:23:08;;;;;;;11.00;9.35;;;21.30;99.90;;;;;;6211537;28;20026;-82
2021/06/18 00:26:09;;;;;;;10.98;9.55;;;21.30;99.90;;;;;;6211046;28;20054;-79
2021/06/18 00:29:09;;;;;;;13.30;9.18;;;21.10;99.90;;;;;;6194897;28;20033;-80
2021/06/18 00:32:10;;;;;;;10.00;9.07;;;21.00;99.90;;;;;;6210768;28;20145;-80
2021/06/18 00:35:11;;;;;;;10.80;9.00;;;21.00;99.90;;;;;;6227794;28;20472;-81
2021/06/18 00:38:12;;;;;;;11.50;9.10;;;21.00;99.90;;;;;;6227607;28;20218;-79
2021/06/18 00:41:12;;;;;;;9.88;8.50;;;21.00;99.90;;;;;;6227888;28;20030;-80
2021/06/18 00:44:13;;;;;;;10.63;9.55;;;20.90;99.90;;;;;;6194682;28;20030;-80
2021/06/18 00:47:15;;;;;;;12.77;9.48;;;21.00;99.90;;;;;;6210621;28;20129;-81
2021/06/18 00:50:17;;;;;;;11.90;9.10;;;20.90;99.90;;;;;;6210919;28;20036;-81
2021/06/18 00:53:17;;;;;;;12.23;9.48;;;20.90;99.90;;;;;;6226762;28;20056;-80
2021/06/18 00:56:18;;;;;;;11.85;10.65;;;21.00;99.90;;;;;;6210881;28;20037;-80
2021/06/18 00:59:19;;;;;;;11.02;9.90;;;20.90;99.90;;;;;;6210991;28;20038;-79
2021/06/18 01:02:19;;;;;;;14.25;10.52;;;20.80;99.90;;;;;;6227350;28;20112;-79
2021/06/18 01:05:20;;;;;;;12.50;10.73;;;20.80;99.90;;;;;;6210752;28;20039;-81
2021/06/18 01:08:42;;;;;;;14.45;11.77;;;20.70;99.90;;;;;;6226914;28;20392;-79
2021/06/18 01:11:59;;;;;;;16.80;11.50;;;20.70;99.90;;;;;;6224413;28;20034;-80
2021/06/18 01:15:12;;;;;;;12.90;11.60;;;20.50;99.90;;;;;;6210205;28;20703;-79
2021/06/18 01:18:14;;;;;;;12.15;10.85;;;20.40;99.90;;;;;;6210304;28;20030;-79
2021/06/18 01:21:28;;;;;;;14.35;10.15;;;20.40;99.90;;;;;;6226179;28;20022;-81
2021/06/18 01:24:56;;;;;;;12.10;10.38;;;20.30;99.90;;;;;;6193293;28;20436;-82
2021/06/18 01:28:17;;;;;;;12.50;9.90;;;20.30;99.90;;;;;;6194541;28;20073;-80
2021/06/18 01:31:29;;;;;;;12.05;9.57;;;20.30;99.90;;;;;;6221834;28;20049;-79
2021/06/18 01:34:31;;;;;;;12.70;11.07;;;20.30;99.90;;;;;;6208714;28;20030;-80
2021/06/18 01:37:31;;;;;;;11.23;10.13;;;20.30;99.90;;;;;;6209830;28;20473;-80
2021/06/18 01:40:32;;;;;;;13.32;10.15;;;20.30;99.90;;;;;;6226127;28;20026;-80
2021/06/18 01:43:33;;;;;;;11.88;10.48;;;20.30;99.90;;;;;;6225918;28;20439;-80
2021/06/18 01:46:35;;;;;;;14.25;10.90;;;20.30;99.90;;;;;;6209740;28;20044;-80
2021/06/18 01:49:37;;;;;;;12.10;10.70;;;20.00;99.90;;;;;;6209204;28;20041;-82
2021/06/18 01:52:38;;;;;;;10.77;9.68;;;20.10;99.90;;;;;;6209888;28;20391;-83
2021/06/18 01:55:39;;;;;;;12.87;10.17;;;20.10;99.90;;;;;;6193036;28;20074;-80
2021/06/18 01:58:40;;;;;;;11.85;9.88;;;;;;;;;;6226297;28;20273;-82
2021/06/18 02:01:42;;;;;;;10.77;9.45;;;19.80;99.90;;;;;;6209269;28;20036;-79
2021/06/18 02:04:42;;;;;;;;;;;19.90;99.90;;;;;;6225949;28;20026;-80
2021/06/18 02:07:43;;;;;;;11.57;9.75;;;;;;;;;;6209604;28;20012;-80
2021/06/18 02:10:45;;;;;;;12.32;10.07;;;;;;;;;;6225551;28;20058;-80
2021/06/18 02:13:45;;;;;;;15.02;9.63;;;;;;;;;;6225548;28;20034;-81
2021/06/18 02:16:57;;;;;;;10.93;9.82;;;19.70;99.90;;;;;;6208846;28;20027;-80
2021/06/18 02:19:58;;;;;;;11.15;10.07;;;;;;;;;;6176809;28;20081;-79
2021/06/18 02:22:59;;;;;;;13.32;10.48;;;;;;;;;;6225300;28;20026;-80
2021/06/18 02:26:01;;;;;;;13.35;9.70;;;19.80;99.90;;;;;;6209404;28;20066;-81
2021/06/18 02:29:01;;;;;;;10.88;9.77;;;19.80;99.90;;;;;;6209317;28;20042;-80
2021/06/18 02:32:03;;;;;;;16.45;10.80;;;20.70;99.90;;;;;;6209003;28;20062;-80
2021/06/18 02:35:04;;;;;;;11.70;9.95;;;19.50;99.90;;;;;;6209073;28;20046;-79
2021/06/18 02:38:06;;;;;;;11.38;10.27;;;19.90;99.90;;;;;;6196221;28;20097;-79
2021/06/18 02:41:06;;;;;;;11.67;10.57;;;19.50;99.90;;;;;;6229913;28;20030;-80
2021/06/18 02:44:07;;;;;;;15.30;10.55;;;;;;;;;;6197590;28;20041;-81
2021/06/18 02:47:32;;;;;;;12.13;10.95;;;19.30;99.90;;;;;;6213568;28;20162;-80
2021/06/18 02:50:56;;;;;;;11.18;10.07;;;19.50;99.90;;;;;;6230533;28;20030;-80
2021/06/18 02:54:51;;;;;;;13.23;10.77;;;19.30;99.90;;;;;;6213856;28;20033;-81
2021/06/18 02:58:00;;;;;;;13.70;10.38;;;19.20;99.90;;;;;;6171149;28;20361;-80
2021/06/18 03:01:02;;;;;;;13.70;10.20;;;19.10;99.90;;;;;;6139620;28;20034;-80
2021/06/18 03:04:03;;;;;;;11.60;10.32;;;;;;;;;;6138947;28;20119;-81
2021/06/18 03:07:06;;;;;;;11.05;9.88;;;19.20;99.90;;;;;;6138741;28;20073;-79
2021/06/18 03:10:08;;;;;;;16.58;10.65;;;19.30;99.90;;;;;;6122944;28;20114;-79
2021/06/18 03:13:15;;;;;;;11.65;10.45;;;18.60;99.90;;;;;;6138903;28;20053;-83
2021/06/18 03:16:16;;;;;;;12.50;9.98;;;19.30;99.90;;;;;;6138883;28;20092;-80
2021/06/18 03:19:19;;;;;;;11.93;9.38;;;19.20;99.90;;;;;;6154636;28;20456;-79
2021/06/18 03:22:21;;;;;;;11.50;10.40;;;19.20;99.90;;;;;;6139115;28;20541;-80
2021/06/18 03:25:23;;;;;;;12.48;11.18;;;19.10;99.90;;;;;;6154579;28;20039;-80
2021/06/18 03:28:24;;;;;;;15.30;10.75;;;19.30;99.90;;;;;;6154692;28;20047;-79
2021/06/18 03:31:25;;;;;;;16.08;11.38;;;19.70;99.90;;;;;;6137275;28;20046;-80
2021/06/18 03:34:26;;;;;;;11.25;10.15;;;19.50;99.90;;;;;;6213196;28;20034;-79
2021/06/18 03:37:27;;;;;;;12.85;10.65;;;19.50;99.90;;;;;;6212805;28;20125;-80
2021/06/18 03:40:28;;;;;;;12.93;9.98;;;19.40;99.90;;;;;;6229414;28;20032;-83
2021/06/18 03:43:28;;;;;;;12.27;11.05;;;19.40;99.90;;;;;;6229049;28;20027;-79
2021/06/18 03:46:29;;;;;;;13.98;11.38;;;19.60;99.90;;;;;;6212710;28;20053;-81
2021/06/18 03:49:30;;;;;;;12.07;10.88;;;19.60;99.90;;;;;;6227982;28;20031;-79
2021/06/18 03:52:31;;;;;;;12.32;11.05;;;19.60;99.90;;;;;;6228562;28;20465;-78
2021/06/18 03:55:31;;;;;;;12.73;10.90;;;19.60;99.90;;;;;;6229569;28;20030;-79
2021/06/18 03:58:35;;;;;;;12.02;10.65;;;19.60;99.90;;;;;;6228929;28;20033;-79
2021/06/18 04:01:37;;;;;;;13.25;11.10;;;19.50;99.90;;;;;;6228487;28;20033;-82
2021/06/18 04:04:37;;;;;;;13.37;9.83;;;19.60;99.90;;;;;;6212231;28;20030;-79
2021/06/18 04:07:38;;;;;;;13.32;10.57;;;19.70;99.90;;;;;;6212229;28;20301;-79
2021/06/18 04:10:39;;;;;;;11.73;10.27;;;19.80;99.90;;;;;;6195573;28;20053;-80
2021/06/18 04:13:40;;;;;;;12.82;10.88;;;20.10;99.90;;;;;;6195837;28;20037;-80
2021/06/18 04:16:41;;;;;;;12.75;10.98;;;20.30;99.90;;;;;;6196768;28;20042;-79
2021/06/18 04:19:42;;;;;;;13.05;11.48;;;20.20;99.90;;;;;;6211455;28;20034;-79
2021/06/18 04:22:43;;;;;;;11.95;10.32;;;20.40;99.90;;;;;;6211806;28;20030;-79
2021/06/18 04:25:43;;;;;;;14.90;11.15;;;20.60;99.90;;;;;;6228180;28;20177;-79
2021/06/18 04:28:44;;;;;;;12.18;10.30;;;20.50;99.90;;;;;;6195453;28;20026;-79
2021/06/18 04:31:45;;;;;;;15.70;11.57;;;20.80;99.90;;;;;;6210793;28;20050;-79
2021/06/18 04:34:48;;;;;;;11.65;10.52;;;21.10;99.90;;;;;;6211394;28;20461;-79
2021/06/18 04:37:49;;;;;;;12.05;10.82;;;21.30;99.90;;;;;;6195942;28;20117;-79
2021/06/18 04:40:50;;;;;;;15.30;10.57;;;21.30;99.90;;;;;;6227226;28;20080;-80
2021/06/18 04:43:51;;;;;;;12.77;10.53;;;21.50;99.90;;;;;;6211272;28;20086;-80
2021/06/18 04:46:51;;;;;;;14.10;10.60;;;21.40;99.90;;;;;;6227607;28;20469;-79
2021/06/18 04:49:52;;;;;;;11.95;10.65;;;21.30;99.90;;;;;;6211071;28;20030;-79
2021/06/18 04:52:53;;;;;;;13.82;11.13;;;;;;;;;;6211030;28;20045;-85
2021/06/18 04:55:53;;;;;;;11.38;10.32;;;21.30;99.70;;;;;;6211128;28;20053;-82
2021/06/18 04:58:57;;;;;;;12.55;10.77;;;21.80;99.90;;;;;;6210920;28;20023;-87
2021/06/18 05:01:58;;;;;;;13.43;10.88;;;21.80;99.90;;;;;;6227383;28;20154;-79
2021/06/18 05:04:58;;;;;;;14.15;11.10;;;22.40;99.90;;;;;;6193774;28;20561;-83
2021/06/18 05:07:59;;;;;;;12.40;10.48;;;22.50;98.50;;;;;;6210824;28;20035;-83
2021/06/18 05:11:00;;;;;;;17.17;11.18;;;22.60;98.30;;;;;;6194276;28;20113;-81
2021/06/18 05:14:01;;;;;;;13.98;10.68;;;22.70;98.00;;;;;;6194339;28;20026;-79
2021/06/18 05:17:01;;;;;;;13.63;11.23;;;23.00;99.10;;;;;;6210625;28;20503;-77
2021/06/18 05:20:03;;;;;;;13.55;10.52;;;23.00;99.90;;;;;;6211003;28;20026;-83
2021/06/18 05:23:04;;;;;;;14.90;9.77;;;;;;;;;;6210917;28;20080;-85
2021/06/18 05:26:05;;;;;;;11.05;9.93;;;23.80;99.90;;;;;;6226999;28;20035;-87
2021/06/18 05:29:05;;;;;;;11.95;9.07;;;23.70;97.10;;;;;;6194034;28;20120;-84
2021/06/18 05:32:06;;;;;;;10.68;8.93;;;24.40;99.90;;;;;;6209624;28;20086;-84
2021/06/18 05:35:07;;;;;;;14.27;9.00;;;24.60;99.90;;;;;;6210443;28;20026;-85
2021/06/18 05:38:08;;;;;;;11.23;8.30;;;24.90;99.30;;;;;;6193824;28;20058;-83
2021/06/18 05:41:09;;;;;;;9.20;8.40;;;;;;;;;;6226473;28;20033;-88
2021/06/18 05:44:10;;;;;;;8.93;7.90;;;25.70;99.90;;;;;;6227322;28;20121;-87
2021/06/18 05:47:10;;;;;;;10.43;7.53;;;26.10;99.90;;;;;;6227333;28;20483;-88
2021/06/18 05:50:12;;;;;;;8.33;7.53;;;;;;;;;;6193953;28;20472;-85
2021/06/18 05:53:13;;;;;;;7.95;6.80;;;;;;;;;;6226335;28;20026;-86
2021/06/18 05:56:14;;;;;;;8.47;7.57;;;;;;;;;;6209610;28;20492;-85
2021/06/18 05:59:15;;;;;;;8.87;7.90;;;;;;;;;;6224840;28;20037;-85
2021/06/18 06:02:18;;;;;;;11.07;8.10;;;;;;;;;;6225579;28;20603;-85
2021/06/18 06:05:19;;;;;;;14.00;7.80;;;;;;;;;;6226506;28;20274;-85
2021/06/18 06:08:20;;;;;;;10.82;7.40;;;28.20;92.70;;;;;;6226393;28;20033;-86
2021/06/18 06:11:21;;;;;;;9.07;7.73;;;28.70;88.10;;;;;;6192985;28;20034;-85
2021/06/18 06:14:22;;;;;;;8.45;7.57;;;;;;;;;;6194972;28;20138;-85
2021/06/18 06:17:23;;;;;;;8.90;8.10;;;29.30;84.50;;;;;;6212057;28;20046;-88
2021/06/18 06:20:24;;;;;;;10.07;7.87;;;;;;;;;;6213097;28;20121;-86
2021/06/18 06:23:25;;;;;;;11.75;7.90;;;;;;;;;;6210008;28;20031;-86
2021/06/18 06:26:25;;;;;;;12.10;8.43;;;29.90;79.30;;;;;;6225686;28;20026;-88
2021/06/18 06:29:26;;;;;;;11.40;8.17;;;29.90;81.90;;;;;;6193440;28;20551;-86
2021/06/18 06:32:27;;;;;;;8.33;7.63;;;29.80;90.30;;;;;;6209051;28;20104;-86
2021/06/18 06:35:27;;;;;;;8.27;7.33;;;29.90;77.00;;;;;;6209759;28;20042;-86
2021/06/18 06:38:28;;;;;;;7.57;6.87;;;29.70;76.30;;;;;;6225848;28;20053;-86
2021/06/18 06:41:29;;;;;;;8.53;6.70;;;;;;;;;;6209741;28;20468;-86
2021/06/18 06:44:30;;;;;;;8.88;6.47;;;;;;;;;;6209633;28;20034;-85
2021/06/18 06:47:31;;;;;;;8.85;6.82;;;29.60;75.20;;;;;;6208458;28;20480;-86
2021/06/18 06:50:32;;;;;;;8.20;6.43;;;;;;;;;;6193204;28;20042;-87
2021/06/18 06:53:33;;;;;;;8.48;6.57;;;29.90;74.50;;;;;;6226107;28;20026;-85
2021/06/18 06:56:34;;;;;;;7.67;6.90;;;;;;;;;;6193167;28;20481;-86
2021/06/18 06:59:35;;;;;;;9.25;6.75;;;;;;;;;;6225266;28;20388;-86
2021/06/18 07:02:36;;;;;;;7.47;6.78;;;;;;;;;;6226006;28;20022;-86
2021/06/18 07:05:37;;;;;;;7.35;6.25;;;;;;;;;;6225502;28;20031;-86
2021/06/18 07:08:38;;;;;;;9.07;7.03;;;29.90;74.50;;;;;;6209079;28;20033;-87
2021/06/18 07:11:39;;;;;;;7.33;6.60;;;;;;;;;;6208552;28;20027;-87
2021/06/18 07:14:40;;;;;;;8.50;6.60;;;29.40;73.80;;;;;;6225244;28;20300;-87
2021/06/18 07:17:41;;;;;;;9.18;7.55;;;28.90;77.40;;;;;;6209010;28;20054;-86
2021/06/18 07:20:42;;;;;;;12.57;7.10;;;28.60;79.60;;;;;;6208655;28;20036;-87
2021/06/18 07:23:42;;;;;;;8.57;7.20;;;28.70;80.50;;;;;;6211491;28;20389;-88
2021/06/18 07:26:43;;;;;;;7.77;7.00;;;29.00;79.50;;;;;;6213799;28;20022;-86
2021/06/18 07:29:45;;;;;;;7.37;6.60;;;;;;;;;;6196958;28;20897;-85
2021/06/18 07:32:46;;;;;;;7.78;6.65;;;;;;;;;;6229710;28;20054;-88
2021/06/18 07:35:47;;;;;;;8.90;6.45;;;;;;;;;;6213865;28;20066;-88
2021/06/18 07:38:48;;;;;;;11.73;6.50;;;31.00;71.40;;;;;;6230257;28;20030;-86
2021/06/18 07:41:49;;;;;;;;;;;31.40;72.90;;;;;;6213281;28;20034;-87
2021/06/18 07:44:50;;;;;;;8.20;6.83;;;;;;;;;;6197232;28;19910;-87
2021/06/18 07:47:51;;;;;;;11.05;7.40;;;;;;;;;;6229829;28;20066;-88
2021/06/18 07:50:52;;;;;;;7.00;6.35;;;32.20;67.80;;;;;;6230294;28;20033;-88
2021/06/18 07:53:53;;;;;;;8.60;6.95;;;;;;;;;;6196740;28;20026;-90
2021/06/18 07:56:55;;;;;;;9.98;6.97;;;;;;;;;;6212962;28;20034;-87
2021/06/18 07:59:56;;;;;;;9.25;7.20;;;;;;;;;;6212915;28;20448;-87
2021/06/18 08:02:58;;;;;;;8.05;6.65;;;33.30;64.20;;;;;;6229092;28;20041;-87
2021/06/18 08:05:59;;;;;;;10.90;7.20;;;;;;;;;;6228967;28;20495;-86
2021/06/18 08:09:00;;;;;;;9.40;6.43;;;34.00;61.10;;;;;;6228942;28;20026;-86
2021/06/18 08:12:00;;;;;;;6.88;6.00;;;34.10;61.30;;;;;;6211961;28;20576;-87
2021/06/18 08:15:01;;;;;;;7.82;6.95;;;34.30;61.00;;;;;;6212172;28;20029;-87
2021/06/18 08:18:02;;;;;;;10.43;7.68;;;;;;;;;;6212446;28;20050;-87
2021/06/18 08:21:03;;;;;;;7.25;6.55;;;33.80;58.20;;;;;;6228410;28;20495;-86
2021/06/18 08:24:04;;;;;;;8.15;7.28;;;33.70;59.50;;;;;;6211782;28;20035;-86
2021/06/18 08:27:05;;;;;;;7.78;7.00;;;33.80;61.20;;;;;;6211461;28;20493;-86
2021/06/18 08:30:06;;;;;;;7.95;7.25;;;34.10;60.10;;;;;;6211523;28;20045;-87
2021/06/18 08:33:07;;;;;;;8.45;6.78;;;34.30;61.70;;;;;;6211446;28;20061;-87
2021/06/18 08:36:07;;;;;;;7.13;6.43;;;34.50;58.90;;;;;;6194890;28;20030;-87
2021/06/18 08:39:08;;;;;;;11.13;6.63;;;34.90;61.10;;;;;;6195340;28;20568;-87
2021/06/18 08:42:09;;;;;;;7.28;6.68;;;34.70;60.60;;;;;;6211322;28;20035;-87
2021/06/18 08:45:10;;;;;;;7.30;6.70;;;34.80;59.70;;;;;;6211742;28;20076;-87
2021/06/18 08:48:11;;;;;;;10.35;6.47;;;35.00;58.50;;;;;;6195057;28;20030;-88
2021/06/18 08:51:11;;;;;;;7.90;7.03;;;35.10;56.80;;;;;;6227989;28;20077;-86
2021/06/18 08:54:12;;;;;;;9.35;7.03;;;34.70;60.30;;;;;;6211105;28;20026;-86
2021/06/18 08:57:14;;;;;;;;;;;34.80;59.90;;;;;;6211810;28;20105;-87
2021/06/18 09:00:19;;;;;;;8.57;7.18;;;35.10;59.60;;;;;;6194836;28;19941;-88
2021/06/18 09:03:38;;;;;;;7.50;6.88;;;35.50;58.80;;;;;;6210808;28;20069;-87
2021/06/18 09:06:40;;;;;;;7.47;6.70;;;;;;;;;;6227429;28;20090;-87
2021/06/18 09:09:41;;;;;;;8.35;7.55;;;;;;;;;;6227761;28;20031;-88
2021/06/18 09:13:00;;;;;;;;;;;35.60;59.10;;;;;;6211679;28;20089;-88
2021/06/18 09:16:01;;;;;;;9.15;7.55;;;;;;;;;;6194679;28;19914;-88
2021/06/18 09:19:01;;;;;;;9.50;7.03;;;35.80;57.90;;;;;;6210460;28;20033;-87
2021/06/18 09:22:02;;;;;;;;;;;35.70;57.00;;;;;;6228167;28;20035;-88
2021/06/18 09:25:14;;;;;;;9.23;7.07;;;35.90;58.10;;;;;;6227242;28;19906;-88
2021/06/18 09:28:14;;;;;;;7.45;6.70;;;36.00;57.10;;;;;;6209639;28;20022;-87
2021/06/18 09:31:15;;;;;;;;;;;36.20;57.60;;;;;;6210946;28;20058;-87
2021/06/18 09:34:28;;;;;;;7.90;6.73;;;36.30;59.30;;;;;;6193920;28;19905;-86
2021/06/18 09:37:36;;;;;;;11.35;7.53;;;36.40;56.70;;;;;;6226697;28;20045;-86
2021/06/18 09:40:37;;;;;;;8.68;7.05;;;36.30;57.10;;;;;;6193724;28;20038;-87
2021/06/18 09:43:44;;;;;;;;;;;36.10;57.40;;;;;;6210806;28;20050;-86
2021/06/18 09:46:50;;;;;;;8.20;6.50;;;36.00;57.00;;;;;;6193861;28;19909;-87
2021/06/18 09:49:51;;;;;;;7.72;6.85;;;36.20;57.50;;;;;;6195269;28;20483;-86
2021/06/18 09:52:53;;;;;;;;;;;36.20;57.70;;;;;;6193784;28;20030;-85
2021/06/18 09:56:11;;;;;;;7.78;6.68;;;36.30;57.20;;;;;;6193749;28;19917;-86
2021/06/18 09:59:22;;;;;;;7.97;7.13;;;36.30;56.50;;;;;;6193210;28;20046;-86
2021/06/18 10:02:37;;;;;;;7.32;6.63;;;36.20;57.60;;;;;;6226575;28;20022;-86
2021/06/18 10:05:39;;;;;;;7.45;6.40;;;36.10;57.50;;;;;;6224736;28;20026;-86
2021/06/18 10:08:40;;;;;;;8.43;6.55;;;36.20;59.30;;;;;;6209782;28;20076;-87
2021/06/18 10:11:43;;;;;;;;;;;36.10;58.40;;;;;;6193606;28;20022;-87
2021/06/18 10:14:43;;;;;;;8.85;6.88;;;35.40;57.70;;;;;;6193515;28;19913;-87
2021/06/18 10:17:45;;;;;;;;;;;36.00;58.40;;;;;;6209798;28;20443;-87
2021/06/18 10:20:46;;;;;;;7.32;6.57;;;35.90;58.70;;;;;;6193431;28;19913;-86
2021/06/18 10:23:50;;;;;;;8.35;7.25;;;35.90;58.80;;;;;;6192913;28;20030;-91
2021/06/18 10:26:52;;;;;;;12.65;7.18;;;35.60;59.90;;;;;;6209984;28;20387;-87
2021/06/18 10:29:53;;;;;;;7.43;6.45;;;35.60;59.10;;;;;;6208281;28;20053;-87
2021/06/18 10:32:53;;;;;;;;;;;35.50;59.20;;;;;;6210245;28;20050;-83
2021/06/18 10:36:04;;;;;;;9.83;7.43;;;35.40;59.50;;;;;;6192793;28;19968;-86
2021/06/18 10:39:13;;;;;;;7.60;6.90;;;35.30;59.10;;;;;;6224305;28;20034;-88
2021/06/18 10:42:16;;;;;;;8.80;7.70;;;;;;;;;;6225545;28;20046;-86
2021/06/18 10:45:17;;;;;;;9.00;7.10;;;35.10;65.00;;;;;;6208641;28;20101;-86
2021/06/18 10:48:17;;;;;;;;;;;35.60;68.90;;;;;;6209210;28;20022;-86
2021/06/18 10:51:32;;;;;;;7.10;6.40;;;35.40;59.20;;;;;;6225461;28;20360;-86
2021/06/18 10:54:52;;;;;;;7.90;7.10;;;35.30;58.80;;;;;;6193783;28;20065;-84
2021/06/18 10:57:53;;;;;;;8.57;7.78;;;35.30;58.90;;;;;;6209543;28;20034;-85
2021/06/18 11:01:05;;;;;;;;;;;35.20;61.40;;;;;;6213826;28;20042;-85
2021/06/18 11:04:07;;;;;;;9.27;7.43;;;35.10;59.30;;;;;;6213505;28;19916;-86
2021/06/18 11:07:31;;;;;;;7.85;7.00;;;35.30;60.00;;;;;;6213269;28;20088;-89
2021/06/18 11:10:31;;;;;;;8.23;6.95;;;35.20;59.60;;;;;;6212088;28;20077;-86
2021/06/18 11:13:32;;;;;;;;;;;35.10;61.70;;;;;;6213692;28;20459;-87
2021/06/18 11:16:37;;;;;;;8.55;7.32;;;35.10;62.00;;;;;;6230187;28;20008;-89
2021/06/18 11:19:47;;;;;;;8.73;7.78;;;35.00;59.90;;;;;;6229572;28;20070;-89
2021/06/18 11:22:58;;;;;;;8.00;7.20;;;35.00;59.10;;;;;;6230464;28;20026;-87
2021/06/18 11:26:06;;;;;;;7.85;7.13;;;34.90;60.40;;;;;;6212493;28;20033;-87
2021/06/18 11:29:25;;;;;;;9.02;7.47;;;35.00;60.00;;;;;;6213205;28;20034;-89
2021/06/18 11:32:44;;;;;;;7.88;7.05;;;34.90;61.80;;;;;;6213708;28;20406;-87
2021/06/18 11:35:45;;;;;;;7.88;7.07;;;34.90;60.80;;;;;;6213399;28;20472;-88
2021/06/18 11:38:47;;;;;;;;;;;34.90;64.70;;;;;;6213437;28;20038;-87
2021/06/18 11:41:49;;;;;;;10.30;6.93;;;;;;;;;;6197258;28;19943;-88
2021/06/18 11:44:50;;;;;;;7.82;7.03;;;35.00;60.20;;;;;;6212436;28;20022;-88
2021/06/18 11:47:51;;;;;;;;;;;35.40;67.40;;;;;;6229939;28;20026;-90
2021/06/18 11:50:52;;;;;;;8.93;6.57;;;;;;;;;;6196782;28;20268;-88
2021/06/18 11:53:54;;;;;;;8.98;7.40;;;;;;;;;;6229182;28;20034;-87
2021/06/18 11:57:01;;;;;;;8.55;6.60;;;34.80;59.80;;;;;;6228986;28;20433;-89
2021/06/18 12:00:03;;;;;;;9.68;7.20;;;35.10;61.90;;;;;;6211859;28;20066;-87
2021/06/18 12:03:04;;;;;;;8.93;7.15;;;34.90;64.60;;;;;;6212390;28;20027;-88
2021/06/18 12:06:14;;;;;;;8.77;7.18;;;36.00;67.20;;;;;;6212718;28;20038;-88
2021/06/18 12:09:16;;;;;;;9.88;7.10;;;35.00;66.70;;;;;;6227837;28;20034;-88
2021/06/18 12:12:17;;;;;;;7.53;6.82;;;34.60;65.00;;;;;;6212174;28;20526;-87
2021/06/18 12:15:22;;;;;;;;;;;35.90;67.40;;;;;;6228149;28;20054;-86
2021/06/18 12:18:24;;;;;;;8.63;6.32;;;34.40;62.00;;;;;;6212014;28;20000;-87
2021/06/18 12:21:28;;;;;;;7.63;6.88;;;34.20;90.70;;;;;;6196401;28;20066;-85
2021/06/18 12:24:47;;;;;;;8.30;6.78;;;34.10;91.40;;;;;;6195528;28;20030;-88
2021/06/18 12:27:48;;;;;;;7.50;6.55;;;;;;;;;;6229408;28;20484;-87
2021/06/18 12:34:11;;;;;;;7.43;6.72;;;;;;;;;;6163699;28;19919;-89
2021/06/18 12:37:12;;;;;;;8.15;7.35;;;;;;;;;;6163400;28;20047;-86
2021/06/18 12:40:15;;;;;;;;;;;34.50;59.60;;;;;;6167805;28;20035;-87
2021/06/18 12:43:17;;;;;;;7.40;6.70;;;;;;;;;;6163931;28;19965;-87
2021/06/18 12:46:20;;;;;;;10.60;6.57;;;34.30;72.30;;;;;;6160821;28;20036;-85
2021/06/18 12:49:31;;;;;;;9.30;6.78;;;33.70;73.70;;;;;;6162501;28;20099;-90
2021/06/18 12:52:32;;;;;;;9.23;7.10;;;;;;;;;;6155072;28;20087;-88
2021/06/18 12:55:41;;;;;;;12.02;7.82;;;33.90;71.90;;;;;;6161480;28;20469;-84
2021/06/18 12:58:42;;;;;;;8.35;7.53;;;;;;;;;;6164265;28;20161;-86
2021/06/18 13:01:43;;;;;;;9.52;7.47;;;34.10;72.20;;;;;;6165761;28;20027;-88
2021/06/18 13:04:44;;;;;;;;;;;33.90;65.60;;;;;;6161337;28;20066;-82
2021/06/18 13:07:46;;;;;;;7.87;6.83;;;34.00;63.30;;;;;;6162294;28;19906;-87
2021/06/18 13:10:46;;;;;;;10.90;7.65;;;34.20;62.90;;;;;;6166556;28;20042;-85
2021/06/18 13:13:47;;;;;;;10.15;7.00;;;34.20;63.30;;;;;;6170335;28;20377;-83
2021/06/18 13:16:57;;;;;;;8.02;7.22;;;34.20;63.00;;;;;;6170197;28;20046;-84
2021/06/18 13:19:57;;;;;;;8.77;7.30;;;34.30;62.40;;;;;;6171171;28;20031;-85
2021/06/18 13:22:58;;;;;;;9.88;7.10;;;34.30;63.10;;;;;;6186499;28;20023;-83
2021/06/18 13:26:03;;;;;;;8.90;7.47;;;34.40;61.60;;;;;;6186345;28;20391;-83
2021/06/18 13:29:21;;;;;;;8.77;7.63;;;34.50;61.70;;;;;;6185905;28;20057;-84
2021/06/18 13:32:22;;;;;;;9.23;6.78;;;35.80;60.40;;;;;;6195303;28;20054;-82
2021/06/18 13:35:26;;;;;;;10.18;6.97;;;34.50;63.00;;;;;;6209981;28;20022;-80
2021/06/18 13:38:26;;;;;;;8.45;6.90;;;34.70;62.70;;;;;;6226215;28;20045;-81
2021/06/18 13:41:38;;;;;;;8.55;7.35;;;35.20;61.60;;;;;;6193484;28;20026;-81
2021/06/18 13:44:39;;;;;;;8.52;7.57;;;34.80;61.80;;;;;;6209676;28;20133;-81
2021/06/18 13:47:39;;;;;;;;;;;35.00;61.20;;;;;;6227172;28;20034;-81
2021/06/18 13:50:42;;;;;;;9.33;7.53;;;35.10;60.60;;;;;;6193536;28;20284;-81
2021/06/18 13:53:42;;;;;;;8.57;7.15;;;35.00;60.30;;;;;;6210020;28;20045;-81
2021/06/18 13:56:43;;;;;;;;;;;34.90;60.40;;;;;;6210173;28;20392;-81
2021/06/18 13:59:44;;;;;;;8.80;6.97;;;34.80;61.40;;;;;;6209998;28;20356;-81
2021/06/18 14:02:45;;;;;;;7.70;7.00;;;34.70;61.30;;;;;;6226112;28;20165;-81
2021/06/18 14:05:45;;;;;;;;;;;34.70;61.60;;;;;;6210701;28;20484;-82
2021/06/18 14:08:46;;;;;;;9.70;7.03;;;34.60;60.10;;;;;;6193327;28;20355;-81
2021/06/18 14:11:47;;;;;;;8.07;7.20;;;34.50;60.80;;;;;;6226411;28;20026;-81
2021/06/18 14:14:49;;;;;;;;;;;34.50;62.10;;;;;;6209885;28;20062;-81
2021/06/18 14:17:50;;;;;;;8.23;7.45;;;34.50;61.30;;;;;;6209395;28;20298;-82
2021/06/18 14:20:50;;;;;;;9.63;7.03;;;34.30;60.80;;;;;;6226097;28;20129;-81
2021/06/18 14:23:56;;;;;;;;;;;34.40;61.10;;;;;;6193537;28;20057;-81
2021/06/18 14:26:57;;;;;;;10.23;7.43;;;34.40;61.00;;;;;;6208961;28;20323;-81
2021/06/18 14:30:00;;;;;;;7.85;7.00;;;34.50;61.50;;;;;;6225371;28;20034;-81
2021/06/18 14:33:00;;;;;;;13.52;7.75;;;34.70;62.70;;;;;;6210539;28;20189;-81
2021/06/18 14:36:01;;;;;;;;;;;34.60;60.00;;;;;;6231248;28;20030;-82
2021/06/18 14:39:01;;;;;;;7.67;6.87;;;34.20;60.20;;;;;;6199077;28;19913;-82
2021/06/18 14:42:02;;;;;;;;;;;34.00;62.50;;;;;;6231212;28;20472;-81
2021/06/18 14:45:03;;;;;;;8.17;7.23;;;33.80;62.30;;;;;;6214359;28;19910;-81
2021/06/18 14:48:04;;;;;;;8.63;7.15;;;33.70;61.50;;;;;;6230273;28;20049;-81
2021/06/18 14:51:05;;;;;;;;;;;33.50;62.90;;;;;;6214281;28;20122;-82
2021/06/18 14:54:06;;;;;;;11.57;7.33;;;33.30;63.40;;;;;;6214070;28;19914;-82
2021/06/18 14:57:07;;;;;;;8.20;7.40;;;33.50;65.70;;;;;;6213706;28;20042;-81
2021/06/18 15:00:09;;;;;;;10.52;7.43;;;33.00;63.60;;;;;;6230583;28;20026;-82
2021/06/18 15:03:10;;;;;;;12.40;7.85;;;32.70;63.80;;;;;;6212702;28;20034;-81
2021/06/18 15:06:10;;;;;;;14.25;8.25;;;32.50;66.10;;;;;;6198569;28;20516;-82
2021/06/18 15:09:11;;;;;;;10.18;8.27;;;32.20;67.00;;;;;;6213499;28;20130;-82
2021/06/18 15:12:13;;;;;;;9.30;8.20;;;32.00;67.70;;;;;;6196871;28;20388;-81
2021/06/18 15:15:14;;;;;;;10.50;8.25;;;31.70;68.30;;;;;;6229652;28;20034;-81
2021/06/18 15:18:14;;;;;;;8.40;7.60;;;31.60;68.20;;;;;;6229993;28;20050;-81
2021/06/18 15:21:15;;;;;;;10.65;8.05;;;31.70;69.40;;;;;;6229700;28;20535;-81
2021/06/18 15:24:16;;;;;;;10.93;7.88;;;32.00;70.70;;;;;;6213367;28;20496;-81
2021/06/18 15:27:16;;;;;;;10.85;8.25;;;32.10;67.70;;;;;;6212987;28;20046;-82
2021/06/18 15:30:17;;;;;;;11.95;7.82;;;32.20;66.80;;;;;;6212922;28;20041;-81
2021/06/18 15:33:18;;;;;;;8.95;8.00;;;32.40;68.20;;;;;;6212456;28;20054;-82
2021/06/18 15:36:19;;;;;;;9.00;8.15;;;32.70;91.90;;;;;;6229347;28;20040;-82
2021/06/18 15:39:21;;;;;;;11.43;8.57;;;32.60;78.70;;;;;;6212845;28;20072;-82
2021/06/18 15:42:22;;;;;;;11.68;8.18;;;32.60;77.30;;;;;;6212679;28;20078;-82
2021/06/18 15:45:23;;;;;;;9.65;8.38;;;32.50;75.50;;;;;;6212475;28;20037;-82
2021/06/18 15:48:24;;;;;;;13.13;7.93;;;32.70;76.40;;;;;;6229686;28;20109;-82
2021/06/18 15:51:24;;;;;;;10.45;8.30;;;32.60;68.00;;;;;;6228940;28;20026;-82
2021/06/18 15:54:31;;;;;;;9.30;7.90;;;32.70;78.60;;;;;;6228985;28;20030;-82
2021/06/18 15:57:32;;;;;;;10.32;8.52;;;;;;;;;;6227137;28;20050;-82
2021/06/18 16:00:33;;;;;;;9.25;8.00;;;32.50;74.10;;;;;;6197340;28;20030;-82
2021/06/18 16:03:36;;;;;;;11.68;9.20;;;32.40;65.60;;;;;;6195776;28;20030;-82
2021/06/18 16:06:36;;;;;;;11.43;8.82;;;32.20;64.50;;;;;;6228420;28;20080;-82
2021/06/18 16:09:38;;;;;;;11.10;8.57;;;32.10;67.60;;;;;;6211765;28;20034;-82
2021/06/18 16:12:39;;;;;;;9.60;8.70;;;32.10;65.80;;;;;;6212193;28;20037;-82
2021/06/18 16:15:40;;;;;;;10.88;9.35;;;32.00;67.60;;;;;;6211902;28;20039;-82
2021/06/18 16:18:40;;;;;;;11.43;8.68;;;32.00;68.50;;;;;;6195691;28;20046;-81